sensor_id;sensor_type;location;lat;lon;timestamp;P1;durP1;ratioP1;P2;durP2;ratioP2
23670;SDS011;12012;51.998;7.614;2023-04-30T00:00:47;15.20;;;9.68;;
23670;SDS011;12012;51.998;7.614;2023-04-30T00:03:13;13.48;;;9.50;;
23670;SDS011;12012;51.998;7.614;2023-04-30T00:05:38;12.07;;;8.65;;
23670;SDS011;12012;51.998;7.614;2023-04-30T00:08:04;11.88;;;8.93;;
23670;SDS011;12012;51.998;7.614;2023-04-30T00:10:30;10.95;;;7.97;;
23670;SDS011;12012;51.998;7.614;2023-04-30T00:12:55;14.52;;;9.45;;
23670;SDS011;12012;51.998;7.614;2023-04-30T00:15:21;13.07;;;8.75;;
23670;SDS011;12012;51.998;7.614;2023-04-30T00:17:47;13.02;;;9.57;;
23670;SDS011;12012;51.998;7.614;2023-04-30T00:20:12;14.60;;;9.63;;
23670;SDS011;12012;51.998;7.614;2023-04-30T00:22:38;12.05;;;8.93;;
23670;SDS011;12012;51.998;7.614;2023-04-30T00:25:04;14.68;;;11.02;;
23670;SDS011;12012;51.998;7.614;2023-04-30T00:27:29;15.85;;;11.05;;
23670;SDS011;12012;51.998;7.614;2023-04-30T00:29:56;17.55;;;11.07;;
23670;SDS011;12012;51.998;7.614;2023-04-30T00:32:22;22.35;;;13.70;;
23670;SDS011;12012;51.998;7.614;2023-04-30T00:34:47;14.48;;;9.95;;
23670;SDS011;12012;51.998;7.614;2023-04-30T00:37:13;18.35;;;13.05;;
23670;SDS011;12012;51.998;7.614;2023-04-30T00:39:38;17.25;;;11.57;;
23670;SDS011;12012;51.998;7.614;2023-04-30T00:42:04;18.17;;;13.77;;
23670;SDS011;12012;51.998;7.614;2023-04-30T00:44:29;18.50;;;13.55;;
23670;SDS011;12012;51.998;7.614;2023-04-30T00:46:55;19.58;;;13.07;;
23670;SDS011;12012;51.998;7.614;2023-04-30T00:49:21;18.30;;;11.57;;
23670;SDS011;12012;51.998;7.614;2023-04-30T00:51:46;19.40;;;13.80;;
23670;SDS011;12012;51.998;7.614;2023-04-30T00:54:12;20.17;;;14.43;;
23670;SDS011;12012;51.998;7.614;2023-04-30T00:56:38;17.67;;;12.50;;
23670;SDS011;12012;51.998;7.614;2023-04-30T00:59:04;17.13;;;12.93;;
23670;SDS011;12012;51.998;7.614;2023-04-30T01:01:29;15.82;;;12.57;;
23670;SDS011;12012;51.998;7.614;2023-04-30T01:03:56;18.40;;;12.80;;
23670;SDS011;12012;51.998;7.614;2023-04-30T01:06:21;14.85;;;11.35;;
23670;SDS011;12012;51.998;7.614;2023-04-30T01:08:47;17.45;;;11.93;;
23670;SDS011;12012;51.998;7.614;2023-04-30T01:16:32;13.90;;;10.68;;
23670;SDS011;12012;51.998;7.614;2023-04-30T01:19:04;12.70;;;10.05;;
23670;SDS011;12012;51.998;7.614;2023-04-30T01:21:36;12.90;;;10.27;;
23670;SDS011;12012;51.998;7.614;2023-04-30T01:29:55;13.05;;;9.30;;
23670;SDS011;12012;51.998;7.614;2023-04-30T01:32:21;12.43;;;9.85;;
23670;SDS011;12012;51.998;7.614;2023-04-30T01:34:47;15.27;;;9.63;;
23670;SDS011;12012;51.998;7.614;2023-04-30T01:37:21;12.65;;;9.07;;
23670;SDS011;12012;51.998;7.614;2023-04-30T01:45:40;17.15;;;11.27;;
23670;SDS011;12012;51.998;7.614;2023-04-30T01:54:07;10.90;;;8.65;;
23670;SDS011;12012;51.998;7.614;2023-04-30T01:57:09;15.15;;;10.38;;
23670;SDS011;12012;51.998;7.614;2023-04-30T01:59:40;16.42;;;10.80;;
23670;SDS011;12012;51.998;7.614;2023-04-30T02:02:07;15.35;;;11.25;;
23670;SDS011;12012;51.998;7.614;2023-04-30T02:04:32;14.77;;;10.05;;
23670;SDS011;12012;51.998;7.614;2023-04-30T02:06:58;14.57;;;10.55;;
23670;SDS011;12012;51.998;7.614;2023-04-30T02:09:25;16.67;;;11.68;;
23670;SDS011;12012;51.998;7.614;2023-04-30T02:11:50;13.32;;;10.57;;
23670;SDS011;12012;51.998;7.614;2023-04-30T02:14:16;17.23;;;11.95;;
23670;SDS011;12012;51.998;7.614;2023-04-30T02:16:41;13.55;;;9.88;;
23670;SDS011;12012;51.998;7.614;2023-04-30T02:19:07;13.35;;;9.45;;
23670;SDS011;12012;51.998;7.614;2023-04-30T02:21:33;12.38;;;8.63;;
23670;SDS011;12012;51.998;7.614;2023-04-30T02:23:58;13.52;;;10.10;;
23670;SDS011;12012;51.998;7.614;2023-04-30T02:26:24;13.77;;;9.73;;
23670;SDS011;12012;51.998;7.614;2023-04-30T02:28:50;11.88;;;9.70;;
23670;SDS011;12012;51.998;7.614;2023-04-30T02:31:16;13.73;;;10.65;;
23670;SDS011;12012;51.998;7.614;2023-04-30T02:33:41;15.70;;;12.20;;
23670;SDS011;12012;51.998;7.614;2023-04-30T02:36:07;19.65;;;12.05;;
23670;SDS011;12012;51.998;7.614;2023-04-30T02:38:32;13.02;;;9.55;;
23670;SDS011;12012;51.998;7.614;2023-04-30T02:40:58;13.27;;;9.80;;
23670;SDS011;12012;51.998;7.614;2023-04-30T02:43:23;11.63;;;8.95;;
23670;SDS011;12012;51.998;7.614;2023-04-30T02:45:49;13.68;;;9.25;;
23670;SDS011;12012;51.998;7.614;2023-04-30T02:48:14;18.50;;;12.30;;
23670;SDS011;12012;51.998;7.614;2023-04-30T02:50:40;15.05;;;9.95;;
23670;SDS011;12012;51.998;7.614;2023-04-30T02:53:06;14.52;;;10.32;;
23670;SDS011;12012;51.998;7.614;2023-04-30T02:55:31;12.85;;;9.27;;
23670;SDS011;12012;51.998;7.614;2023-04-30T02:57:57;13.73;;;9.65;;
23670;SDS011;12012;51.998;7.614;2023-04-30T03:00:22;12.90;;;9.60;;
23670;SDS011;12012;51.998;7.614;2023-04-30T03:02:48;18.83;;;13.85;;
23670;SDS011;12012;51.998;7.614;2023-04-30T03:05:13;14.43;;;10.05;;
23670;SDS011;12012;51.998;7.614;2023-04-30T03:07:42;15.80;;;11.15;;
23670;SDS011;12012;51.998;7.614;2023-04-30T03:10:08;15.15;;;11.60;;
23670;SDS011;12012;51.998;7.614;2023-04-30T03:12:34;17.92;;;12.65;;
23670;SDS011;12012;51.998;7.614;2023-04-30T03:15:00;17.85;;;11.35;;
23670;SDS011;12012;51.998;7.614;2023-04-30T03:17:25;13.43;;;9.82;;
23670;SDS011;12012;51.998;7.614;2023-04-30T03:19:51;14.18;;;10.45;;
23670;SDS011;12012;51.998;7.614;2023-04-30T03:22:16;13.38;;;9.88;;
23670;SDS011;12012;51.998;7.614;2023-04-30T03:24:47;17.98;;;13.30;;
23670;SDS011;12012;51.998;7.614;2023-04-30T03:27:13;17.88;;;12.57;;
23670;SDS011;12012;51.998;7.614;2023-04-30T03:29:40;17.85;;;11.85;;
23670;SDS011;12012;51.998;7.614;2023-04-30T03:32:06;14.40;;;10.82;;
23670;SDS011;12012;51.998;7.614;2023-04-30T03:34:31;16.75;;;11.88;;
23670;SDS011;12012;51.998;7.614;2023-04-30T03:36:57;19.77;;;12.20;;
23670;SDS011;12012;51.998;7.614;2023-04-30T03:39:23;18.42;;;11.35;;
23670;SDS011;12012;51.998;7.614;2023-04-30T03:41:48;14.85;;;8.88;;
23670;SDS011;12012;51.998;7.614;2023-04-30T03:44:14;14.98;;;11.30;;
23670;SDS011;12012;51.998;7.614;2023-04-30T03:46:42;14.23;;;10.88;;
23670;SDS011;12012;51.998;7.614;2023-04-30T03:49:08;16.17;;;11.65;;
23670;SDS011;12012;51.998;7.614;2023-04-30T03:51:35;15.40;;;11.43;;
23670;SDS011;12012;51.998;7.614;2023-04-30T03:54:04;13.93;;;10.35;;
23670;SDS011;12012;51.998;7.614;2023-04-30T03:56:30;17.88;;;13.45;;
23670;SDS011;12012;51.998;7.614;2023-04-30T03:58:56;15.15;;;11.00;;
23670;SDS011;12012;51.998;7.614;2023-04-30T04:01:22;15.85;;;10.30;;
23670;SDS011;12012;51.998;7.614;2023-04-30T04:03:48;16.70;;;10.82;;
23670;SDS011;12012;51.998;7.614;2023-04-30T04:06:13;13.98;;;10.05;;
23670;SDS011;12012;51.998;7.614;2023-04-30T04:08:39;20.42;;;11.27;;
23670;SDS011;12012;51.998;7.614;2023-04-30T04:11:07;15.20;;;10.13;;
23670;SDS011;12012;51.998;7.614;2023-04-30T04:13:33;13.40;;;10.68;;
23670;SDS011;12012;51.998;7.614;2023-04-30T04:15:59;20.15;;;15.27;;
23670;SDS011;12012;51.998;7.614;2023-04-30T04:18:24;15.98;;;11.18;;
23670;SDS011;12012;51.998;7.614;2023-04-30T04:20:50;16.75;;;10.50;;
23670;SDS011;12012;51.998;7.614;2023-04-30T04:23:16;19.20;;;11.73;;
23670;SDS011;12012;51.998;7.614;2023-04-30T04:25:41;13.00;;;9.40;;
23670;SDS011;12012;51.998;7.614;2023-04-30T04:28:08;15.32;;;10.00;;
23670;SDS011;12012;51.998;7.614;2023-04-30T04:30:33;12.77;;;9.07;;
23670;SDS011;12012;51.998;7.614;2023-04-30T04:33:00;18.00;;;11.75;;
23670;SDS011;12012;51.998;7.614;2023-04-30T04:35:26;13.40;;;8.35;;
23670;SDS011;12012;51.998;7.614;2023-04-30T04:37:52;14.43;;;10.77;;
23670;SDS011;12012;51.998;7.614;2023-04-30T04:40:17;16.08;;;10.68;;
23670;SDS011;12012;51.998;7.614;2023-04-30T04:42:43;11.60;;;9.13;;
23670;SDS011;12012;51.998;7.614;2023-04-30T04:45:08;15.82;;;10.63;;
23670;SDS011;12012;51.998;7.614;2023-04-30T04:47:35;16.70;;;11.57;;
23670;SDS011;12012;51.998;7.614;2023-04-30T04:50:01;12.80;;;9.40;;
23670;SDS011;12012;51.998;7.614;2023-04-30T04:52:27;20.85;;;12.63;;
23670;SDS011;12012;51.998;7.614;2023-04-30T04:54:52;23.08;;;13.95;;
23670;SDS011;12012;51.998;7.614;2023-04-30T04:57:18;22.30;;;13.45;;
23670;SDS011;12012;51.998;7.614;2023-04-30T04:59:43;14.63;;;9.93;;
23670;SDS011;12012;51.998;7.614;2023-04-30T05:02:09;14.35;;;9.73;;
23670;SDS011;12012;51.998;7.614;2023-04-30T05:04:35;17.90;;;10.93;;
23670;SDS011;12012;51.998;7.614;2023-04-30T05:07:00;15.23;;;10.18;;
23670;SDS011;12012;51.998;7.614;2023-04-30T05:09:26;17.67;;;10.63;;
23670;SDS011;12012;51.998;7.614;2023-04-30T05:11:51;16.30;;;10.70;;
23670;SDS011;12012;51.998;7.614;2023-04-30T05:14:17;16.75;;;11.77;;
23670;SDS011;12012;51.998;7.614;2023-04-30T05:16:43;15.48;;;9.52;;
23670;SDS011;12012;51.998;7.614;2023-04-30T05:19:08;12.52;;;9.77;;
23670;SDS011;12012;51.998;7.614;2023-04-30T05:21:34;13.90;;;9.68;;
23670;SDS011;12012;51.998;7.614;2023-04-30T05:23:59;16.17;;;10.18;;
23670;SDS011;12012;51.998;7.614;2023-04-30T05:26:27;14.90;;;9.88;;
23670;SDS011;12012;51.998;7.614;2023-04-30T05:28:52;14.57;;;9.27;;
23670;SDS011;12012;51.998;7.614;2023-04-30T05:31:18;10.90;;;7.55;;
23670;SDS011;12012;51.998;7.614;2023-04-30T05:33:44;9.45;;;6.35;;
23670;SDS011;12012;51.998;7.614;2023-04-30T05:36:09;10.32;;;6.63;;
23670;SDS011;12012;51.998;7.614;2023-04-30T05:38:35;11.70;;;6.70;;
23670;SDS011;12012;51.998;7.614;2023-04-30T05:41:01;13.25;;;8.23;;
23670;SDS011;12012;51.998;7.614;2023-04-30T05:43:26;12.18;;;7.45;;
23670;SDS011;12012;51.998;7.614;2023-04-30T05:45:52;15.90;;;7.85;;
23670;SDS011;12012;51.998;7.614;2023-04-30T05:48:18;13.25;;;6.97;;
23670;SDS011;12012;51.998;7.614;2023-04-30T05:50:43;10.90;;;6.78;;
23670;SDS011;12012;51.998;7.614;2023-04-30T05:53:09;12.55;;;6.50;;
23670;SDS011;12012;51.998;7.614;2023-04-30T05:55:34;15.45;;;7.70;;
23670;SDS011;12012;51.998;7.614;2023-04-30T05:58:00;13.45;;;6.90;;
23670;SDS011;12012;51.998;7.614;2023-04-30T06:00:25;10.88;;;6.60;;
23670;SDS011;12012;51.998;7.614;2023-04-30T06:02:51;12.75;;;6.10;;
23670;SDS011;12012;51.998;7.614;2023-04-30T06:05:17;12.20;;;6.10;;
23670;SDS011;12012;51.998;7.614;2023-04-30T06:07:43;13.63;;;6.85;;
23670;SDS011;12012;51.998;7.614;2023-04-30T06:10:08;15.00;;;6.55;;
23670;SDS011;12012;51.998;7.614;2023-04-30T06:12:34;13.32;;;5.78;;
23670;SDS011;12012;51.998;7.614;2023-04-30T06:15:00;11.88;;;5.85;;
23670;SDS011;12012;51.998;7.614;2023-04-30T06:17:26;13.93;;;6.97;;
23670;SDS011;12012;51.998;7.614;2023-04-30T06:19:51;15.32;;;6.78;;
23670;SDS011;12012;51.998;7.614;2023-04-30T06:22:17;15.52;;;6.15;;
23670;SDS011;12012;51.998;7.614;2023-04-30T06:24:42;9.68;;;4.93;;
23670;SDS011;12012;51.998;7.614;2023-04-30T06:27:08;10.77;;;5.95;;
23670;SDS011;12012;51.998;7.614;2023-04-30T06:29:33;9.45;;;5.32;;
23670;SDS011;12012;51.998;7.614;2023-04-30T06:31:59;18.23;;;6.28;;
23670;SDS011;12012;51.998;7.614;2023-04-30T06:34:24;13.82;;;6.30;;
23670;SDS011;12012;51.998;7.614;2023-04-30T06:36:50;11.88;;;5.50;;
23670;SDS011;12012;51.998;7.614;2023-04-30T06:39:16;13.70;;;5.95;;
23670;SDS011;12012;51.998;7.614;2023-04-30T06:41:41;11.70;;;5.68;;
23670;SDS011;12012;51.998;7.614;2023-04-30T06:44:07;11.02;;;5.70;;
23670;SDS011;12012;51.998;7.614;2023-04-30T06:46:33;9.70;;;5.07;;
23670;SDS011;12012;51.998;7.614;2023-04-30T06:48:59;11.95;;;5.65;;
23670;SDS011;12012;51.998;7.614;2023-04-30T06:51:24;13.10;;;5.72;;
23670;SDS011;12012;51.998;7.614;2023-04-30T06:53:50;9.90;;;4.75;;
23670;SDS011;12012;51.998;7.614;2023-04-30T06:56:16;10.02;;;5.28;;
23670;SDS011;12012;51.998;7.614;2023-04-30T06:58:42;14.98;;;6.60;;
23670;SDS011;12012;51.998;7.614;2023-04-30T07:01:07;13.95;;;5.28;;
23670;SDS011;12012;51.998;7.614;2023-04-30T07:03:33;15.35;;;5.93;;
23670;SDS011;12012;51.998;7.614;2023-04-30T07:05:59;12.85;;;5.80;;
23670;SDS011;12012;51.998;7.614;2023-04-30T07:08:25;13.20;;;5.55;;
23670;SDS011;12012;51.998;7.614;2023-04-30T07:10:50;11.45;;;4.78;;
23670;SDS011;12012;51.998;7.614;2023-04-30T07:13:16;10.82;;;4.95;;
23670;SDS011;12012;51.998;7.614;2023-04-30T07:15:42;10.98;;;5.45;;
23670;SDS011;12012;51.998;7.614;2023-04-30T07:18:08;9.27;;;4.32;;
23670;SDS011;12012;51.998;7.614;2023-04-30T07:20:34;9.45;;;4.28;;
23670;SDS011;12012;51.998;7.614;2023-04-30T07:22:59;13.68;;;4.63;;
23670;SDS011;12012;51.998;7.614;2023-04-30T07:25:25;11.27;;;4.30;;
23670;SDS011;12012;51.998;7.614;2023-04-30T07:27:51;9.88;;;4.25;;
23670;SDS011;12012;51.998;7.614;2023-04-30T07:30:20;10.30;;;3.97;;
23670;SDS011;12012;51.998;7.614;2023-04-30T07:32:46;15.57;;;5.80;;
23670;SDS011;12012;51.998;7.614;2023-04-30T07:35:12;11.32;;;4.25;;
23670;SDS011;12012;51.998;7.614;2023-04-30T07:37:38;12.70;;;4.63;;
23670;SDS011;12012;51.998;7.614;2023-04-30T07:40:05;10.65;;;4.03;;
23670;SDS011;12012;51.998;7.614;2023-04-30T07:42:36;11.77;;;3.90;;
23670;SDS011;12012;51.998;7.614;2023-04-30T07:45:03;9.50;;;3.13;;
23670;SDS011;12012;51.998;7.614;2023-04-30T07:47:29;7.95;;;3.53;;
23670;SDS011;12012;51.998;7.614;2023-04-30T07:49:55;15.98;;;4.43;;
23670;SDS011;12012;51.998;7.614;2023-04-30T07:52:21;7.60;;;3.25;;
23670;SDS011;12012;51.998;7.614;2023-04-30T07:54:46;6.03;;;2.67;;
23670;SDS011;12012;51.998;7.614;2023-04-30T07:57:12;6.90;;;2.70;;
23670;SDS011;12012;51.998;7.614;2023-04-30T07:59:37;6.45;;;2.67;;
23670;SDS011;12012;51.998;7.614;2023-04-30T08:02:03;7.20;;;2.80;;
23670;SDS011;12012;51.998;7.614;2023-04-30T08:04:28;6.10;;;2.28;;
23670;SDS011;12012;51.998;7.614;2023-04-30T08:06:54;10.95;;;3.10;;
23670;SDS011;12012;51.998;7.614;2023-04-30T08:09:20;8.68;;;2.38;;
23670;SDS011;12012;51.998;7.614;2023-04-30T08:11:45;8.48;;;2.88;;
23670;SDS011;12012;51.998;7.614;2023-04-30T08:14:11;7.35;;;2.70;;
23670;SDS011;12012;51.998;7.614;2023-04-30T08:16:36;5.82;;;2.00;;
23670;SDS011;12012;51.998;7.614;2023-04-30T08:19:02;11.43;;;3.20;;
23670;SDS011;12012;51.998;7.614;2023-04-30T08:21:29;9.70;;;2.58;;
23670;SDS011;12012;51.998;7.614;2023-04-30T08:23:55;4.45;;;2.30;;
23670;SDS011;12012;51.998;7.614;2023-04-30T08:26:21;9.85;;;2.75;;
23670;SDS011;12012;51.998;7.614;2023-04-30T08:28:47;7.90;;;2.90;;
23670;SDS011;12012;51.998;7.614;2023-04-30T08:31:13;6.57;;;3.17;;
23670;SDS011;12012;51.998;7.614;2023-04-30T08:33:38;9.20;;;3.13;;
23670;SDS011;12012;51.998;7.614;2023-04-30T08:36:05;9.10;;;3.20;;
23670;SDS011;12012;51.998;7.614;2023-04-30T08:38:30;7.65;;;3.42;;
23670;SDS011;12012;51.998;7.614;2023-04-30T08:41:14;6.57;;;2.58;;
23670;SDS011;12012;51.998;7.614;2023-04-30T08:43:40;8.55;;;2.65;;
23670;SDS011;12012;51.998;7.614;2023-04-30T08:46:06;8.93;;;2.83;;
23670;SDS011;12012;51.998;7.614;2023-04-30T08:48:32;8.70;;;2.65;;
23670;SDS011;12012;51.998;7.614;2023-04-30T08:51:01;9.50;;;2.72;;
23670;SDS011;12012;51.998;7.614;2023-04-30T08:53:28;8.85;;;2.67;;
23670;SDS011;12012;51.998;7.614;2023-04-30T08:55:55;5.03;;;2.53;;
23670;SDS011;12012;51.998;7.614;2023-04-30T08:58:21;10.65;;;2.58;;
23670;SDS011;12012;51.998;7.614;2023-04-30T09:00:47;5.70;;;2.13;;
23670;SDS011;12012;51.998;7.614;2023-04-30T09:03:13;5.93;;;2.85;;
23670;SDS011;12012;51.998;7.614;2023-04-30T09:05:38;6.93;;;2.85;;
23670;SDS011;12012;51.998;7.614;2023-04-30T09:08:05;8.98;;;3.08;;
23670;SDS011;12012;51.998;7.614;2023-04-30T09:10:32;7.78;;;3.10;;
23670;SDS011;12012;51.998;7.614;2023-04-30T09:15:28;9.38;;;2.83;;
23670;SDS011;12012;51.998;7.614;2023-04-30T09:18:13;5.82;;;2.65;;
23670;SDS011;12012;51.998;7.614;2023-04-30T09:20:58;4.75;;;2.30;;
23670;SDS011;12012;51.998;7.614;2023-04-30T09:23:28;8.57;;;2.45;;
23670;SDS011;12012;51.998;7.614;2023-04-30T09:25:54;5.25;;;2.33;;
23670;SDS011;12012;51.998;7.614;2023-04-30T09:28:21;4.07;;;2.10;;
23670;SDS011;12012;51.998;7.614;2023-04-30T09:33:19;5.35;;;2.58;;
23670;SDS011;12012;51.998;7.614;2023-04-30T09:35:45;5.65;;;2.65;;
23670;SDS011;12012;51.998;7.614;2023-04-30T09:38:27;6.43;;;3.00;;
23670;SDS011;12012;51.998;7.614;2023-04-30T09:40:57;7.82;;;2.85;;
23670;SDS011;12012;51.998;7.614;2023-04-30T09:43:24;7.78;;;2.95;;
23670;SDS011;12012;51.998;7.614;2023-04-30T09:45:50;7.93;;;2.80;;
23670;SDS011;12012;51.998;7.614;2023-04-30T09:48:25;5.53;;;2.58;;
23670;SDS011;12012;51.998;7.614;2023-04-30T09:50:52;7.70;;;2.90;;
23670;SDS011;12012;51.998;7.614;2023-04-30T09:53:18;5.80;;;2.47;;
23670;SDS011;12012;51.998;7.614;2023-04-30T09:55:47;3.90;;;2.35;;
23670;SDS011;12012;51.998;7.614;2023-04-30T09:58:15;8.05;;;2.60;;
23670;SDS011;12012;51.998;7.614;2023-04-30T10:00:42;8.80;;;2.92;;
23670;SDS011;12012;51.998;7.614;2023-04-30T10:03:09;6.03;;;2.85;;
23670;SDS011;12012;51.998;7.614;2023-04-30T10:05:36;7.85;;;2.72;;
23670;SDS011;12012;51.998;7.614;2023-04-30T10:08:06;6.88;;;2.65;;
23670;SDS011;12012;51.998;7.614;2023-04-30T10:10:37;6.68;;;2.78;;
23670;SDS011;12012;51.998;7.614;2023-04-30T10:13:07;9.95;;;3.10;;
23670;SDS011;12012;51.998;7.614;2023-04-30T10:15:38;7.07;;;3.10;;
23670;SDS011;12012;51.998;7.614;2023-04-30T10:18:10;5.60;;;2.40;;
23670;SDS011;12012;51.998;7.614;2023-04-30T10:20:40;4.15;;;2.17;;
23670;SDS011;12012;51.998;7.614;2023-04-30T10:23:06;6.38;;;2.40;;
23670;SDS011;12012;51.998;7.614;2023-04-30T10:25:32;6.45;;;2.20;;
23670;SDS011;12012;51.998;7.614;2023-04-30T10:27:58;4.13;;;2.00;;
23670;SDS011;12012;51.998;7.614;2023-04-30T10:30:24;6.63;;;2.10;;
23670;SDS011;12012;51.998;7.614;2023-04-30T10:33:05;6.38;;;2.28;;
23670;SDS011;12012;51.998;7.614;2023-04-30T10:35:46;5.22;;;2.08;;
23670;SDS011;12012;51.998;7.614;2023-04-30T10:38:19;5.00;;;1.83;;
23670;SDS011;12012;51.998;7.614;2023-04-30T10:43:16;4.65;;;1.83;;
23670;SDS011;12012;51.998;7.614;2023-04-30T10:45:43;3.95;;;1.70;;
23670;SDS011;12012;51.998;7.614;2023-04-30T10:48:09;5.32;;;2.22;;
23670;SDS011;12012;51.998;7.614;2023-04-30T10:50:41;6.75;;;2.67;;
23670;SDS011;12012;51.998;7.614;2023-04-30T10:53:11;4.00;;;1.80;;
23670;SDS011;12012;51.998;7.614;2023-04-30T10:55:46;6.88;;;2.38;;
23670;SDS011;12012;51.998;7.614;2023-04-30T11:01:12;3.50;;;1.90;;
23670;SDS011;12012;51.998;7.614;2023-04-30T11:03:40;7.35;;;2.22;;
23670;SDS011;12012;51.998;7.614;2023-04-30T11:06:07;6.15;;;2.05;;
23670;SDS011;12012;51.998;7.614;2023-04-30T11:08:43;3.15;;;1.50;;
23670;SDS011;12012;51.998;7.614;2023-04-30T11:11:10;3.15;;;1.70;;
23670;SDS011;12012;51.998;7.614;2023-04-30T11:13:51;3.92;;;1.63;;
23670;SDS011;12012;51.998;7.614;2023-04-30T11:16:47;3.75;;;1.50;;
23670;SDS011;12012;51.998;7.614;2023-04-30T11:19:13;4.20;;;1.77;;
23670;SDS011;12012;51.998;7.614;2023-04-30T11:22:14;4.80;;;2.00;;
23670;SDS011;12012;51.998;7.614;2023-04-30T11:27:13;3.90;;;2.13;;
23670;SDS011;12012;51.998;7.614;2023-04-30T11:29:48;5.13;;;2.00;;
23670;SDS011;12012;51.998;7.614;2023-04-30T11:32:15;4.00;;;1.60;;
23670;SDS011;12012;51.998;7.614;2023-04-30T11:34:42;3.47;;;1.80;;
23670;SDS011;12012;51.998;7.614;2023-04-30T11:37:08;3.35;;;2.00;;
23670;SDS011;12012;51.998;7.614;2023-04-30T11:39:38;5.03;;;1.90;;
23670;SDS011;12012;51.998;7.614;2023-04-30T11:42:06;4.03;;;1.40;;
23670;SDS011;12012;51.998;7.614;2023-04-30T11:44:32;4.03;;;1.58;;
23670;SDS011;12012;51.998;7.614;2023-04-30T11:46:58;4.60;;;1.33;;
23670;SDS011;12012;51.998;7.614;2023-04-30T11:49:25;3.13;;;1.50;;
23670;SDS011;12012;51.998;7.614;2023-04-30T11:51:51;2.95;;;1.65;;
23670;SDS011;12012;51.998;7.614;2023-04-30T11:54:17;3.55;;;1.60;;
23670;SDS011;12012;51.998;7.614;2023-04-30T11:56:46;2.63;;;1.60;;
23670;SDS011;12012;51.998;7.614;2023-04-30T11:59:12;2.80;;;1.65;;
23670;SDS011;12012;51.998;7.614;2023-04-30T12:01:39;1.98;;;1.38;;
23670;SDS011;12012;51.998;7.614;2023-04-30T12:04:05;3.63;;;1.50;;
23670;SDS011;12012;51.998;7.614;2023-04-30T12:06:32;3.15;;;1.58;;
23670;SDS011;12012;51.998;7.614;2023-04-30T12:08:59;3.65;;;1.58;;
23670;SDS011;12012;51.998;7.614;2023-04-30T12:11:28;5.22;;;1.90;;
23670;SDS011;12012;51.998;7.614;2023-04-30T12:14:02;2.58;;;1.20;;
23670;SDS011;12012;51.998;7.614;2023-04-30T12:16:41;3.78;;;1.40;;
23670;SDS011;12012;51.998;7.614;2023-04-30T12:19:14;2.42;;;1.40;;
23670;SDS011;12012;51.998;7.614;2023-04-30T12:21:41;2.65;;;1.30;;
23670;SDS011;12012;51.998;7.614;2023-04-30T12:24:11;3.20;;;1.60;;
23670;SDS011;12012;51.998;7.614;2023-04-30T12:26:37;3.28;;;1.50;;
23670;SDS011;12012;51.998;7.614;2023-04-30T12:29:13;4.38;;;1.58;;
23670;SDS011;12012;51.998;7.614;2023-04-30T12:31:40;4.13;;;1.60;;
23670;SDS011;12012;51.998;7.614;2023-04-30T12:34:06;2.47;;;1.20;;
23670;SDS011;12012;51.998;7.614;2023-04-30T12:36:33;3.67;;;1.73;;
23670;SDS011;12012;51.998;7.614;2023-04-30T12:39:11;4.10;;;1.70;;
23670;SDS011;12012;51.998;7.614;2023-04-30T12:41:41;6.22;;;1.70;;
23670;SDS011;12012;51.998;7.614;2023-04-30T12:44:14;2.65;;;1.60;;
23670;SDS011;12012;51.998;7.614;2023-04-30T12:46:45;3.42;;;1.40;;
23670;SDS011;12012;51.998;7.614;2023-04-30T12:49:20;3.00;;;1.40;;
23670;SDS011;12012;51.998;7.614;2023-04-30T12:51:50;3.35;;;1.50;;
23670;SDS011;12012;51.998;7.614;2023-04-30T12:54:28;4.93;;;1.70;;
23670;SDS011;12012;51.998;7.614;2023-04-30T12:56:59;3.95;;;1.70;;
23670;SDS011;12012;51.998;7.614;2023-04-30T12:59:38;6.30;;;1.75;;
23670;SDS011;12012;51.998;7.614;2023-04-30T13:02:23;6.45;;;2.00;;
23670;SDS011;12012;51.998;7.614;2023-04-30T13:04:51;2.83;;;1.40;;
23670;SDS011;12012;51.998;7.614;2023-04-30T13:07:17;1.70;;;1.13;;
23670;SDS011;12012;51.998;7.614;2023-04-30T13:09:43;4.15;;;1.52;;
23670;SDS011;12012;51.998;7.614;2023-04-30T13:12:08;3.45;;;1.35;;
23670;SDS011;12012;51.998;7.614;2023-04-30T13:14:34;6.18;;;1.73;;
23670;SDS011;12012;51.998;7.614;2023-04-30T13:17:00;6.38;;;1.75;;
23670;SDS011;12012;51.998;7.614;2023-04-30T13:19:31;6.88;;;1.98;;
23670;SDS011;12012;51.998;7.614;2023-04-30T13:21:57;5.72;;;1.80;;
23670;SDS011;12012;51.998;7.614;2023-04-30T13:24:25;4.55;;;1.67;;
23670;SDS011;12012;51.998;7.614;2023-04-30T13:26:51;3.25;;;1.52;;
23670;SDS011;12012;51.998;7.614;2023-04-30T13:29:17;7.30;;;1.85;;
23670;SDS011;12012;51.998;7.614;2023-04-30T13:31:45;3.88;;;1.63;;
23670;SDS011;12012;51.998;7.614;2023-04-30T13:34:13;4.07;;;1.50;;
23670;SDS011;12012;51.998;7.614;2023-04-30T13:36:39;3.33;;;1.50;;
23670;SDS011;12012;51.998;7.614;2023-04-30T13:39:05;4.45;;;1.40;;
23670;SDS011;12012;51.998;7.614;2023-04-30T13:41:30;3.55;;;1.75;;
23670;SDS011;12012;51.998;7.614;2023-04-30T13:43:56;2.72;;;1.30;;
23670;SDS011;12012;51.998;7.614;2023-04-30T13:46:23;6.22;;;1.80;;
23670;SDS011;12012;51.998;7.614;2023-04-30T13:48:49;2.15;;;1.23;;
23670;SDS011;12012;51.998;7.614;2023-04-30T13:51:17;3.75;;;1.60;;
23670;SDS011;12012;51.998;7.614;2023-04-30T13:53:42;2.95;;;1.15;;
23670;SDS011;12012;51.998;7.614;2023-04-30T13:56:08;2.83;;;1.33;;
23670;SDS011;12012;51.998;7.614;2023-04-30T13:58:34;3.58;;;1.38;;
23670;SDS011;12012;51.998;7.614;2023-04-30T14:01:00;3.88;;;1.30;;
23670;SDS011;12012;51.998;7.614;2023-04-30T14:03:26;3.15;;;1.30;;
23670;SDS011;12012;51.998;7.614;2023-04-30T14:05:52;4.05;;;1.30;;
23670;SDS011;12012;51.998;7.614;2023-04-30T14:08:18;2.75;;;1.30;;
23670;SDS011;12012;51.998;7.614;2023-04-30T14:10:44;2.78;;;1.30;;
23670;SDS011;12012;51.998;7.614;2023-04-30T14:13:09;2.83;;;1.40;;
23670;SDS011;12012;51.998;7.614;2023-04-30T14:15:35;2.92;;;1.67;;
23670;SDS011;12012;51.998;7.614;2023-04-30T14:18:02;3.47;;;1.58;;
23670;SDS011;12012;51.998;7.614;2023-04-30T14:20:28;3.65;;;1.20;;
23670;SDS011;12012;51.998;7.614;2023-04-30T14:22:53;3.95;;;1.60;;
23670;SDS011;12012;51.998;7.614;2023-04-30T14:25:19;2.58;;;1.17;;
23670;SDS011;12012;51.998;7.614;2023-04-30T14:27:45;2.67;;;1.27;;
23670;SDS011;12012;51.998;7.614;2023-04-30T14:30:12;2.50;;;1.10;;
23670;SDS011;12012;51.998;7.614;2023-04-30T14:32:38;3.25;;;1.20;;
23670;SDS011;12012;51.998;7.614;2023-04-30T14:35:03;4.80;;;1.50;;
23670;SDS011;12012;51.998;7.614;2023-04-30T14:37:29;1.63;;;1.02;;
23670;SDS011;12012;51.998;7.614;2023-04-30T14:39:55;2.78;;;1.40;;
23670;SDS011;12012;51.998;7.614;2023-04-30T14:42:21;3.38;;;1.40;;
23670;SDS011;12012;51.998;7.614;2023-04-30T14:44:46;1.90;;;1.00;;
23670;SDS011;12012;51.998;7.614;2023-04-30T14:47:12;2.83;;;1.17;;
23670;SDS011;12012;51.998;7.614;2023-04-30T14:49:38;2.33;;;1.00;;
23670;SDS011;12012;51.998;7.614;2023-04-30T14:52:04;2.65;;;1.00;;
23670;SDS011;12012;51.998;7.614;2023-04-30T14:54:30;4.22;;;1.38;;
23670;SDS011;12012;51.998;7.614;2023-04-30T14:56:55;3.97;;;1.30;;
23670;SDS011;12012;51.998;7.614;2023-04-30T14:59:21;4.28;;;1.70;;
23670;SDS011;12012;51.998;7.614;2023-04-30T15:01:46;1.80;;;0.88;;
23670;SDS011;12012;51.998;7.614;2023-04-30T15:04:12;2.05;;;1.10;;
23670;SDS011;12012;51.998;7.614;2023-04-30T15:06:38;4.68;;;1.30;;
23670;SDS011;12012;51.998;7.614;2023-04-30T15:09:03;4.00;;;1.30;;
23670;SDS011;12012;51.998;7.614;2023-04-30T15:11:30;2.67;;;1.10;;
23670;SDS011;12012;51.998;7.614;2023-04-30T15:13:56;5.10;;;1.50;;